Hlavní strana
METAR-TAF:

METAR-TAF

Letiště :

Terst / Ronchi dei Legionari, Itálie

zeměpisná šířka: 45-49N, zeměpisná délka: 013-29E, výška: 12 m

Aktuální stav počasí

Zpráva byla vytvořena před 25 minutami, v 16:20 UTC
vítr z různých směrů 2 kt
Teplota 5°C
Vlhkost vzduchu 60%
Tlak 1023 hPa
Viditelnost 10 km a více
Žádná oblačnost pod 1500 m, nevyskytují se cumulonimby.

METAR: LIPQ 171620Z VRB02KT CAVOK 05/M02 Q1023

Čas: 17:45 (16:45 UTC)

Předpověď počasí

Zpráva byla vytvořena před 5 hodinami a 45 minutami, v 11:00 UTC
Předpověď platná od 17 v 12 UTC do 18 v 12 UTC
vítr z různých směrů 5 kt
Viditelnost 10 km a více
Polojasno ve výšce 6000 ft

TAF: LIPQ 171100Z 1712/1812 VRB05KT 9999 SCT060

Stav a předpovědi počasí z více než 4 000 letišť (zprávy METAR a TAF).

Červené a žluté tečky na mapě představují dostupné meteorologické stanice.

Když kurzor umístíte na tečku, zobrazí se název stanice.

Pak kliknutím zobrazíte stav a předpověď počasí.

Chcete-li změnit mapu, kliknutím na zelené tlačítko se znaménkem +mapu přiblížíte, kliknutím na zelené tlačítko se znaménkem – mapu oddálíte a kliknutím na zelené šipky přejdete na sousední mapy.


METAR-TAF: